createdAt,value
2023-03-17T00:04:11.208Z,3.33
2023-03-17T00:09:12.245Z,3.37
2023-03-17T00:14:12.574Z,3.43
2023-03-17T00:19:13.528Z,3.47
2023-03-17T00:24:15.361Z,3.53
2023-03-17T00:29:15.251Z,3.58
2023-03-17T00:34:16.112Z,3.57
2023-03-17T00:39:16.995Z,3.66
2023-03-17T00:44:18.102Z,3.71
2023-03-17T00:49:18.995Z,3.82
2023-03-17T00:54:19.831Z,3.87
2023-03-17T00:59:20.987Z,3.83
2023-03-17T01:04:21.838Z,3.97
2023-03-17T01:09:22.692Z,3.96
2023-03-17T01:14:23.815Z,4.02
2023-03-17T01:19:24.650Z,4.08
2023-03-17T01:24:25.502Z,4.10
2023-03-17T01:29:26.602Z,4.09
2023-03-17T01:34:27.469Z,4.15
2023-03-17T01:39:28.330Z,4.20
2023-03-17T01:44:29.461Z,4.17
2023-03-17T01:49:30.356Z,4.26
2023-03-17T01:54:31.380Z,4.24
2023-03-17T01:59:32.525Z,4.38
2023-03-17T02:04:33.437Z,4.40
2023-03-17T02:09:34.278Z,4.48
2023-03-17T02:14:35.435Z,4.50
2023-03-17T02:19:43.290Z,4.54
2023-03-17T02:24:37.110Z,4.69
2023-03-17T02:29:38.274Z,4.60
2023-03-17T02:34:39.135Z,4.71
2023-03-17T02:39:40.079Z,4.69
2023-03-17T02:44:41.211Z,4.85
2023-03-17T02:49:42.109Z,4.98
2023-03-17T02:54:43.032Z,5.10
2023-03-17T02:59:44.187Z,5.19
2023-03-17T03:04:45.084Z,5.15
2023-03-17T03:09:45.987Z,5.19
2023-03-17T03:14:47.155Z,5.23
2023-03-17T03:19:48.054Z,5.34
2023-03-17T03:24:48.957Z,5.39
2023-03-17T03:29:50.123Z,5.43
2023-03-17T03:34:51.017Z,5.53
2023-03-17T03:39:51.919Z,5.59
2023-03-17T03:44:53.079Z,5.62
2023-03-17T03:49:53.957Z,5.71
2023-03-17T03:54:54.854Z,5.65
2023-03-17T03:59:56.018Z,5.78
2023-03-17T04:04:57.032Z,5.93
2023-03-17T04:09:57.898Z,5.82
2023-03-17T04:14:59.060Z,5.94
2023-03-17T04:19:59.973Z,6.03
2023-03-17T04:25:00.890Z,6.03
2023-03-17T04:30:02.046Z,6.05
2023-03-17T04:35:02.957Z,6.15
2023-03-17T04:40:03.849Z,6.16
2023-03-17T04:45:05.055Z,6.10
2023-03-17T04:50:05.907Z,6.07
2023-03-17T04:55:06.799Z,5.99
2023-03-17T05:00:07.914Z,6.05
2023-03-17T05:05:08.757Z,5.89
2023-03-17T05:10:09.581Z,5.82
2023-03-17T05:15:10.656Z,5.88
2023-03-17T05:20:11.471Z,5.65
2023-03-17T05:25:12.294Z,5.66
2023-03-17T05:30:13.360Z,5.60
2023-03-17T05:35:14.207Z,5.51
2023-03-17T05:40:15.127Z,5.47
2023-03-17T05:45:16.130Z,5.48
2023-03-17T05:50:16.932Z,5.35
2023-03-17T05:55:17.743Z,5.26
2023-03-17T06:00:18.840Z,5.24
2023-03-17T06:05:19.634Z,5.14
2023-03-17T06:10:20.458Z,5.09
2023-03-17T06:15:21.502Z,5.06
2023-03-17T06:20:22.425Z,5.00
2023-03-17T06:25:23.216Z,4.93
2023-03-17T06:30:24.267Z,4.83
2023-03-17T06:35:25.113Z,4.81
2023-03-17T06:40:25.859Z,4.78
2023-03-17T06:45:26.883Z,4.54
2023-03-17T06:50:27.654Z,4.48
2023-03-17T06:55:29.022Z,4.58
2023-03-17T07:00:28.964Z,4.33
2023-03-17T07:05:30.423Z,4.22
2023-03-17T07:10:30.932Z,4.27
2023-03-17T07:15:32.115Z,1.99
2023-03-17T07:20:32.548Z,1.51
2023-03-17T07:25:33.692Z,1.21
2023-03-17T07:30:34.056Z,1.04
2023-03-17T07:35:35.063Z,1.00
2023-03-17T07:40:35.879Z,1.34
2023-03-17T07:45:36.949Z,1.51
2023-03-17T07:50:37.669Z,1.74
2023-03-17T07:55:38.420Z,1.99
2023-03-17T08:00:39.416Z,2.17
2023-03-17T08:05:40.185Z,2.27
2023-03-17T08:10:40.911Z,2.48
2023-03-17T08:15:41.868Z,2.85
2023-03-17T08:20:42.584Z,2.84
2023-03-17T08:25:50.323Z,3.15
2023-03-17T08:30:43.945Z,3.54
2023-03-17T08:35:44.872Z,3.48
2023-03-17T08:40:45.502Z,2.47
2023-03-17T08:45:46.275Z,2.25
2023-03-17T08:50:47.132Z,2.21
2023-03-17T08:55:47.800Z,2.22
2023-03-17T09:00:48.465Z,2.13
2023-03-17T09:05:49.389Z,2.15
2023-03-17T09:10:50.055Z,2.24
2023-03-17T09:15:52.011Z,2.21
2023-03-17T09:20:51.280Z,2.28
2023-03-17T09:25:51.958Z,2.26
2023-03-17T09:30:53.070Z,2.23
2023-03-17T09:35:53.724Z,2.27
2023-03-17T09:40:54.369Z,2.24
2023-03-17T09:45:55.283Z,2.25
2023-03-17T09:50:55.949Z,2.25
2023-03-17T09:55:56.612Z,2.28
2023-03-17T10:00:57.547Z,2.26
2023-03-17T10:05:58.252Z,2.27
2023-03-17T10:10:58.917Z,2.25
2023-03-17T10:15:59.924Z,2.25
2023-03-17T10:21:00.574Z,2.26
2023-03-17T10:26:01.261Z,2.27
2023-03-17T10:31:02.268Z,2.26
2023-03-17T10:36:02.993Z,2.24
2023-03-17T10:41:03.637Z,2.25
2023-03-17T10:46:04.571Z,2.28
2023-03-17T10:51:05.269Z,2.22
2023-03-17T10:56:05.900Z,2.23
2023-03-17T11:01:06.845Z,2.26
2023-03-17T11:06:07.501Z,2.32
2023-03-17T11:11:08.179Z,2.31
2023-03-17T11:16:09.133Z,2.25
2023-03-17T11:21:09.805Z,2.25
2023-03-17T11:26:10.490Z,2.25
2023-03-17T11:31:11.446Z,2.18
2023-03-17T11:36:12.106Z,2.30
2023-03-17T11:41:12.777Z,2.47
2023-03-17T11:46:13.784Z,2.62
2023-03-17T11:51:14.439Z,2.66
2023-03-17T11:56:15.132Z,2.74
2023-03-17T12:01:16.057Z,2.69
2023-03-17T12:06:16.734Z,2.81
2023-03-17T12:11:17.399Z,2.76
2023-03-17T12:16:18.358Z,2.78
2023-03-17T12:21:18.950Z,2.74
2023-03-17T12:26:19.586Z,2.79
2023-03-17T12:31:20.549Z,2.86
2023-03-17T12:36:21.187Z,2.80
2023-03-17T12:41:21.819Z,2.88
2023-03-17T12:46:22.823Z,2.87
2023-03-17T12:51:23.479Z,2.82
2023-03-17T12:56:24.121Z,2.83
2023-03-17T13:01:25.032Z,2.83
2023-03-17T13:06:25.668Z,2.87
2023-03-17T13:11:26.317Z,2.80
2023-03-17T13:16:27.246Z,2.82
2023-03-17T13:21:29.167Z,2.84
2023-03-17T13:26:28.351Z,2.82
2023-03-17T13:31:29.036Z,2.77
2023-03-17T13:36:29.654Z,2.80
2023-03-17T13:41:30.574Z,2.79
2023-03-17T13:46:31.285Z,2.85
2023-03-17T13:51:31.959Z,2.83
2023-03-17T13:56:32.842Z,2.81
2023-03-17T14:01:33.505Z,2.80
2023-03-17T14:06:34.151Z,2.97
2023-03-17T14:11:35.106Z,3.02
2023-03-17T14:16:35.800Z,2.97
2023-03-17T14:21:36.511Z,3.19
2023-03-17T14:26:37.396Z,3.27
2023-03-17T14:31:38.082Z,3.13
2023-03-17T14:36:38.690Z,2.99
2023-03-17T14:41:39.590Z,2.92
2023-03-17T14:46:40.230Z,2.88
2023-03-17T14:51:40.897Z,2.78
2023-03-17T14:56:41.773Z,2.78
2023-03-17T15:01:42.406Z,2.79
2023-03-17T15:06:43.053Z,2.70
2023-03-17T15:11:43.944Z,2.70
2023-03-17T15:16:44.660Z,2.61
2023-03-17T15:21:45.287Z,2.72
2023-03-17T15:26:46.199Z,2.67
2023-03-17T15:31:46.869Z,2.63
2023-03-17T15:36:47.572Z,2.57
2023-03-17T15:41:48.491Z,2.56
2023-03-17T15:46:49.113Z,2.51
2023-03-17T15:51:49.771Z,2.47
2023-03-17T15:56:50.663Z,2.45
2023-03-17T16:01:51.362Z,2.46
2023-03-17T16:06:52.015Z,2.48
2023-03-17T16:11:53.011Z,2.47
2023-03-17T16:17:00.665Z,2.47
2023-03-17T16:21:54.297Z,2.53
2023-03-17T16:26:55.224Z,2.54
2023-03-17T16:31:55.897Z,2.59
2023-03-17T16:36:56.544Z,2.55
2023-03-17T16:41:57.473Z,2.58
2023-03-17T16:46:58.403Z,2.58
2023-03-17T16:51:59.026Z,2.53
2023-03-17T16:56:59.961Z,2.61
2023-03-17T17:02:00.632Z,2.59
2023-03-17T17:07:01.294Z,2.55
2023-03-17T17:12:02.218Z,2.61
2023-03-17T17:17:02.892Z,2.61
2023-03-17T17:22:03.589Z,2.62
2023-03-17T17:27:04.541Z,2.62
2023-03-17T17:32:05.231Z,2.63
2023-03-17T17:37:05.939Z,2.65
2023-03-17T17:42:06.887Z,2.72
2023-03-17T17:47:07.576Z,3.61
2023-03-17T17:52:08.235Z,3.69
2023-03-17T17:57:09.153Z,3.71
2023-03-17T18:02:09.833Z,3.65
2023-03-17T18:07:10.493Z,3.54
2023-03-17T18:12:11.418Z,3.45
2023-03-17T18:17:12.061Z,3.43
2023-03-17T18:22:12.756Z,3.60
2023-03-17T18:27:13.679Z,3.57
2023-03-17T18:32:14.313Z,3.52
2023-03-17T18:37:15.000Z,3.47
2023-03-17T18:42:15.933Z,3.37
2023-03-17T18:47:16.609Z,3.32
2023-03-17T18:52:17.272Z,3.26
2023-03-17T18:57:18.207Z,3.23
2023-03-17T19:02:18.851Z,3.13
2023-03-17T19:07:19.516Z,3.05
2023-03-17T19:12:20.503Z,2.98
2023-03-17T19:17:21.165Z,2.98
2023-03-17T19:22:21.860Z,2.93
2023-03-17T19:27:22.773Z,2.95
2023-03-17T19:32:23.453Z,2.92
2023-03-17T19:37:24.396Z,2.85
2023-03-17T19:42:24.550Z,2.84
2023-03-17T19:47:25.466Z,2.85
2023-03-17T19:52:26.142Z,2.86
2023-03-17T19:57:26.829Z,2.83
2023-03-17T20:02:27.782Z,2.85
2023-03-17T20:07:28.540Z,2.83
2023-03-17T20:12:29.180Z,2.81
2023-03-17T20:17:30.106Z,2.80
2023-03-17T20:22:30.789Z,2.77
2023-03-17T20:27:31.505Z,2.77
2023-03-17T20:32:32.472Z,2.75
2023-03-17T20:37:33.155Z,2.72
2023-03-17T20:42:33.850Z,2.71
2023-03-17T20:47:34.830Z,2.68
2023-03-17T20:52:35.525Z,2.68
2023-03-17T20:57:36.254Z,2.68
2023-03-17T21:02:37.263Z,2.65
2023-03-17T21:07:37.945Z,2.61
2023-03-17T21:12:38.657Z,2.63
2023-03-17T21:17:39.613Z,2.56
2023-03-17T21:22:40.304Z,2.58
2023-03-17T21:27:41.015Z,2.54
2023-03-17T21:32:42.075Z,2.54
2023-03-17T21:37:42.785Z,2.57
2023-03-17T21:42:43.498Z,2.54
2023-03-17T21:47:44.501Z,2.58
2023-03-17T21:52:45.285Z,2.57
2023-03-17T21:57:46.049Z,2.58
2023-03-17T22:02:47.133Z,2.65
2023-03-17T22:07:47.866Z,2.66
2023-03-17T22:12:48.648Z,2.65
2023-03-17T22:17:49.691Z,2.69
2023-03-17T22:22:50.480Z,2.70
2023-03-17T22:27:51.270Z,2.75
2023-03-17T22:32:52.319Z,2.80
2023-03-17T22:37:53.122Z,2.85
2023-03-17T22:42:53.932Z,2.85
2023-03-17T22:48:03.937Z,2.86
2023-03-17T22:52:55.713Z,2.94
2023-03-17T22:57:56.534Z,2.92
2023-03-17T23:02:57.354Z,2.90
2023-03-17T23:07:58.415Z,2.94
2023-03-17T23:12:59.274Z,3.01
2023-03-17T23:18:00.102Z,3.03
2023-03-17T23:23:01.156Z,3.07
2023-03-17T23:28:01.977Z,3.07
2023-03-17T23:33:02.916Z,3.11
2023-03-17T23:38:03.993Z,3.05
2023-03-17T23:43:04.824Z,3.14
2023-03-17T23:48:05.675Z,3.12
2023-03-17T23:53:06.769Z,3.16
2023-03-17T23:58:07.623Z,3.20
